createdAt,value
2022-10-07T00:01:02.179Z,93.04
2022-10-07T00:03:30.286Z,93.82
2022-10-07T00:06:07.032Z,94.90
2022-10-07T00:08:39.474Z,95.48
2022-10-07T00:11:10.200Z,94.84
2022-10-07T00:13:40.587Z,96.02
2022-10-07T00:16:13.537Z,96.37
2022-10-07T00:18:41.957Z,96.83
2022-10-07T00:21:12.035Z,95.89
2022-10-07T00:23:41.748Z,94.67
2022-10-07T00:26:11.178Z,94.93
2022-10-07T00:28:41.077Z,95.25
2022-10-07T00:31:12.839Z,95.91
2022-10-07T00:33:40.996Z,96.06
2022-10-07T00:36:10.843Z,94.92
2022-10-07T00:38:39.102Z,94.93
2022-10-07T00:41:16.207Z,96.27
2022-10-07T00:43:43.646Z,96.28
2022-10-07T00:46:25.804Z,95.85
2022-10-07T00:48:54.141Z,95.01
2022-10-07T00:51:21.422Z,95.58
2022-10-07T00:53:52.403Z,95.33
2022-10-07T00:56:19.973Z,95.68
2022-10-07T00:58:50.307Z,95.53
2022-10-07T01:01:20.054Z,96.52
2022-10-07T01:03:49.126Z,96.91
2022-10-07T01:06:18.241Z,97.86
2022-10-07T01:08:47.677Z,98.12
2022-10-07T01:11:17.891Z,97.69
2022-10-07T01:14:10.185Z,97.58
2022-10-07T01:17:04.497Z,96.90
2022-10-07T01:19:55.804Z,98.12
2022-10-07T01:22:40.735Z,98.16
2022-10-07T01:25:32.231Z,98.05
2022-10-07T01:28:22.255Z,98.45
2022-10-07T01:30:54.821Z,98.94
2022-10-07T01:33:27.973Z,99.78
2022-10-07T01:36:00.050Z,100.00
2022-10-07T01:38:28.348Z,100.00
2022-10-07T01:41:08.311Z,100.00
2022-10-07T01:43:38.527Z,100.00
2022-10-07T01:46:17.294Z,100.00
2022-10-07T01:48:46.572Z,100.00
2022-10-07T01:51:23.363Z,99.49
2022-10-07T01:54:02.492Z,99.20
2022-10-07T01:56:37.259Z,98.85
2022-10-07T01:59:19.933Z,98.82
2022-10-07T02:02:06.784Z,97.34
2022-10-07T02:04:47.055Z,96.29
2022-10-07T02:07:18.851Z,96.18
2022-10-07T02:10:03.664Z,95.53
2022-10-07T02:12:52.487Z,95.09
2022-10-07T02:15:30.724Z,95.11
2022-10-07T02:18:03.489Z,94.99
2022-10-07T02:20:34.850Z,95.00
2022-10-07T02:23:08.371Z,94.11
2022-10-07T02:25:42.696Z,93.66
2022-10-07T02:28:12.918Z,94.79
2022-10-07T02:30:43.515Z,94.27
2022-10-07T02:33:12.347Z,94.46
2022-10-07T02:35:44.074Z,94.19
2022-10-07T02:38:14.938Z,94.04
2022-10-07T02:40:52.731Z,93.85
2022-10-07T02:43:53.459Z,94.31
2022-10-07T02:46:26.600Z,94.57
2022-10-07T02:49:08.306Z,94.91
2022-10-07T02:51:46.569Z,94.79
2022-10-07T02:54:21.537Z,94.42
2022-10-07T02:56:50.685Z,95.53
2022-10-07T02:59:19.578Z,95.80
2022-10-07T03:01:50.379Z,96.94
2022-10-07T03:04:18.740Z,97.62
2022-10-07T03:06:46.153Z,97.35
2022-10-07T05:25:02.133Z,93.43
2022-10-07T05:27:29.919Z,93.29
2022-10-07T05:29:57.454Z,93.52
2022-10-07T05:32:25.922Z,93.41
2022-10-07T05:34:55.907Z,94.32
2022-10-07T05:37:23.465Z,93.60
2022-10-07T05:39:51.919Z,93.05
2022-10-07T05:42:21.022Z,93.13
2022-10-07T05:44:55.691Z,93.80
2022-10-07T05:47:24.095Z,94.02
2022-10-07T05:49:56.355Z,93.86
2022-10-07T05:52:24.201Z,93.61
2022-10-07T05:54:52.605Z,93.09
2022-10-07T05:57:20.877Z,92.88
2022-10-07T05:59:49.497Z,89.68
2022-10-07T06:02:18.854Z,81.34
2022-10-07T06:04:48.806Z,73.81
2022-10-07T06:07:22.083Z,68.89
2022-10-07T06:10:10.430Z,66.97
2022-10-07T06:12:56.983Z,62.12
2022-10-07T06:15:24.375Z,59.48
2022-10-07T06:17:51.921Z,58.92
2022-10-07T06:20:20.392Z,56.50
2022-10-07T06:22:49.544Z,54.48
2022-10-07T06:25:18.841Z,54.40
2022-10-07T06:27:52.805Z,55.06
2022-10-07T06:30:21.667Z,52.97
2022-10-07T06:32:49.249Z,56.49
2022-10-07T06:35:17.265Z,61.41
2022-10-07T06:37:44.814Z,65.51
2022-10-07T06:40:12.442Z,71.22
2022-10-07T06:42:40.047Z,73.67
2022-10-07T06:45:32.993Z,75.69
2022-10-07T06:48:01.114Z,78.09
2022-10-07T06:50:29.419Z,79.24
2022-10-07T06:52:57.220Z,79.52
2022-10-07T06:55:26.846Z,80.07
2022-10-07T06:57:54.418Z,80.95
2022-10-07T07:00:21.988Z,81.24
2022-10-07T07:02:49.848Z,81.72
2022-10-07T07:05:17.454Z,80.02
2022-10-07T07:07:46.832Z,80.60
2022-10-07T07:10:14.940Z,80.46
2022-10-07T07:12:46.403Z,81.16
2022-10-07T07:15:14.308Z,81.02
2022-10-07T07:17:41.747Z,81.69
2022-10-07T07:20:10.407Z,81.68
2022-10-07T07:22:39.424Z,80.25
2022-10-07T07:25:10.100Z,80.04
2022-10-07T07:27:37.920Z,78.56
2022-10-07T07:30:06.900Z,78.87
2022-10-07T07:32:34.215Z,78.57
2022-10-07T07:35:04.589Z,77.45
2022-10-07T07:37:33.730Z,70.10
2022-10-07T07:40:01.169Z,59.27
2022-10-07T07:42:28.524Z,53.45
2022-10-07T07:44:57.772Z,48.57
2022-10-07T07:47:26.691Z,46.19
2022-10-07T07:49:54.282Z,43.63
2022-10-07T07:52:27.592Z,42.94
2022-10-07T07:54:58.980Z,42.59
2022-10-07T07:57:27.286Z,41.70
2022-10-07T07:59:55.241Z,40.37
2022-10-07T08:02:23.429Z,39.92
2022-10-07T08:04:53.926Z,39.21
2022-10-07T08:07:22.575Z,38.12
2022-10-07T08:09:51.051Z,37.86
2022-10-07T08:12:21.135Z,38.50
2022-10-07T08:14:49.527Z,38.54
2022-10-07T08:17:17.530Z,37.72
2022-10-07T08:19:46.586Z,36.95
2022-10-07T08:22:17.595Z,36.37
2022-10-07T08:24:48.493Z,35.71
2022-10-07T08:27:17.071Z,35.09
2022-10-07T08:29:44.458Z,34.95
2022-10-07T08:32:11.816Z,33.91
2022-10-07T08:34:39.473Z,34.06
2022-10-07T08:37:06.743Z,34.59
2022-10-07T08:39:34.046Z,32.67
2022-10-07T08:42:13.194Z,33.27
2022-10-07T08:44:44.414Z,33.34
2022-10-07T08:47:16.067Z,33.14
2022-10-07T08:50:08.133Z,32.71
2022-10-07T08:52:41.594Z,33.82
2022-10-07T08:55:32.485Z,32.55
2022-10-07T08:58:15.761Z,32.51
2022-10-07T09:00:58.220Z,32.15
2022-10-07T09:04:02.796Z,32.71
2022-10-07T09:06:35.970Z,33.08
2022-10-07T09:09:12.046Z,32.40
2022-10-07T09:11:42.831Z,31.58
2022-10-07T09:14:36.336Z,31.33
2022-10-07T09:17:15.383Z,31.13
2022-10-07T09:19:48.038Z,31.62
2022-10-07T09:22:21.466Z,31.04
2022-10-07T09:24:49.985Z,30.96
2022-10-07T09:27:20.122Z,29.80
2022-10-07T09:29:47.485Z,29.88
2022-10-07T09:32:18.791Z,31.42
2022-10-07T09:34:49.313Z,30.28
2022-10-07T09:37:19.301Z,30.98
2022-10-07T09:39:50.306Z,31.28
2022-10-07T09:42:43.207Z,30.79
2022-10-07T09:45:25.627Z,30.98
2022-10-07T09:47:56.549Z,30.41
2022-10-07T09:50:43.947Z,30.33
2022-10-07T09:53:25.709Z,32.24
2022-10-07T09:55:55.042Z,32.36
2022-10-07T09:58:28.223Z,32.95
2022-10-07T10:01:01.225Z,34.33
2022-10-07T10:03:31.179Z,34.35
2022-10-07T10:06:03.031Z,34.85
2022-10-07T10:08:34.085Z,34.62
2022-10-07T10:11:04.191Z,35.63
2022-10-07T10:13:39.243Z,37.07
2022-10-07T10:16:25.104Z,37.01
2022-10-07T10:19:02.500Z,37.46
2022-10-07T10:21:35.722Z,36.39
2022-10-07T10:24:06.335Z,38.21
2022-10-07T10:26:58.438Z,38.67
2022-10-07T10:29:38.902Z,37.37
2022-10-07T10:32:38.776Z,38.77
2022-10-07T10:35:32.022Z,38.76
2022-10-07T10:38:23.804Z,40.50
2022-10-07T10:41:09.605Z,38.71
2022-10-07T10:44:00.268Z,38.62
2022-10-07T10:46:52.493Z,38.57
2022-10-07T10:49:44.586Z,39.49
2022-10-07T10:52:40.566Z,39.40
2022-10-07T10:55:29.142Z,39.09
2022-10-07T10:58:00.679Z,39.58
2022-10-07T11:00:47.879Z,39.38
2022-10-07T11:03:43.086Z,41.05
2022-10-07T11:06:16.513Z,39.17
2022-10-07T11:08:47.251Z,39.49
2022-10-07T11:11:19.980Z,38.79
2022-10-07T11:13:54.546Z,38.13
2022-10-07T11:16:27.900Z,38.22
2022-10-07T11:19:01.473Z,40.89
2022-10-07T11:21:41.969Z,40.00
2022-10-07T11:24:27.551Z,41.06
2022-10-07T11:27:07.826Z,39.98
2022-10-07T11:30:08.195Z,38.71
2022-10-07T11:32:45.768Z,39.14
2022-10-07T11:35:25.699Z,40.28
2022-10-07T11:38:04.880Z,40.48
2022-10-07T11:40:34.896Z,39.08
2022-10-07T11:43:08.984Z,40.16
2022-10-07T11:45:44.817Z,40.48
2022-10-07T11:48:19.355Z,39.54
2022-10-07T11:50:55.905Z,38.20
2022-10-07T11:53:30.835Z,38.70
2022-10-07T11:56:04.673Z,38.14
2022-10-07T11:58:37.530Z,38.02
2022-10-07T12:01:26.283Z,38.20
2022-10-07T12:04:15.359Z,38.35
2022-10-07T12:07:20.204Z,38.08
2022-10-07T12:10:03.591Z,37.57
2022-10-07T12:12:43.002Z,37.29
2022-10-07T12:15:25.659Z,38.29
2022-10-07T12:18:20.248Z,37.15
2022-10-07T12:20:50.557Z,36.67
2022-10-07T12:23:20.584Z,37.42
2022-10-07T12:26:31.024Z,37.58
2022-10-07T12:28:58.890Z,38.24
2022-10-07T12:31:26.291Z,37.94
2022-10-07T12:34:28.482Z,38.43
2022-10-07T12:37:34.257Z,38.48
2022-10-07T12:40:17.863Z,38.84
2022-10-07T12:42:53.469Z,38.01
2022-10-07T12:45:24.219Z,37.20
2022-10-07T12:47:56.764Z,38.07
2022-10-07T12:50:25.607Z,37.63
2022-10-07T12:52:56.678Z,37.51
2022-10-07T12:55:29.690Z,37.21
2022-10-07T12:58:18.469Z,37.67
2022-10-07T13:00:59.926Z,37.07
2022-10-07T13:04:13.853Z,37.49
2022-10-07T13:07:10.671Z,38.14
2022-10-07T13:10:00.021Z,38.32
2022-10-07T13:12:52.242Z,38.36
2022-10-07T13:15:41.269Z,38.27
2022-10-07T13:18:40.467Z,38.37
2022-10-07T13:21:12.862Z,38.39
2022-10-07T13:23:40.340Z,38.87
2022-10-07T13:26:07.781Z,38.45
2022-10-07T13:28:47.180Z,38.51
2022-10-07T13:31:18.697Z,38.56
2022-10-07T13:33:46.502Z,39.17
2022-10-07T13:36:23.639Z,38.84
2022-10-07T13:39:09.952Z,39.13
2022-10-07T13:41:39.344Z,39.17
2022-10-07T13:44:06.767Z,38.52
2022-10-07T13:46:38.255Z,40.83
2022-10-07T13:49:06.553Z,40.34
2022-10-07T13:51:38.136Z,39.08
2022-10-07T13:54:27.766Z,38.80
2022-10-07T13:56:55.410Z,39.46
2022-10-07T13:59:23.537Z,39.28
2022-10-07T14:01:53.767Z,39.28
2022-10-07T14:04:33.259Z,39.54
2022-10-07T14:07:12.681Z,39.39
2022-10-07T14:09:50.279Z,39.61
2022-10-07T14:12:22.407Z,40.21
2022-10-07T14:14:55.899Z,40.57
2022-10-07T14:17:56.697Z,40.61
2022-10-07T14:20:33.442Z,40.31
2022-10-07T14:23:05.473Z,41.32
2022-10-07T14:25:52.185Z,41.04
2022-10-07T14:28:25.359Z,41.41
2022-10-07T14:31:41.631Z,40.93
2022-10-07T14:34:35.980Z,39.28
2022-10-07T14:37:10.786Z,39.36
2022-10-07T14:39:39.499Z,40.05
2022-10-07T14:42:13.890Z,40.80
2022-10-07T14:44:44.978Z,40.72
2022-10-07T14:47:13.858Z,41.30
2022-10-07T14:49:44.646Z,42.44
2022-10-07T14:52:31.498Z,42.20
2022-10-07T14:55:03.839Z,43.04
2022-10-07T14:57:31.308Z,42.50
2022-10-07T14:59:58.739Z,43.07
2022-10-07T15:02:26.510Z,44.36
2022-10-07T15:04:53.936Z,44.51
2022-10-07T15:07:21.544Z,45.08
2022-10-07T15:09:48.839Z,43.73
2022-10-07T15:12:16.590Z,44.49
2022-10-07T15:14:43.959Z,44.59
2022-10-07T15:17:12.202Z,44.23
2022-10-07T15:19:42.137Z,44.67
2022-10-07T15:22:09.468Z,45.12
2022-10-07T15:24:38.494Z,44.24
2022-10-07T15:27:07.180Z,46.41
2022-10-07T15:29:34.443Z,45.55
2022-10-07T15:32:04.269Z,45.24
2022-10-07T15:34:31.715Z,45.05
2022-10-07T15:37:00.748Z,45.21
2022-10-07T15:39:29.480Z,44.79
2022-10-07T15:41:56.876Z,45.79
2022-10-07T15:44:24.252Z,44.76
2022-10-07T15:46:54.466Z,44.75
2022-10-07T15:49:22.253Z,45.98
2022-10-07T15:51:50.043Z,45.47
2022-10-07T15:54:17.634Z,46.08
2022-10-07T15:56:45.274Z,45.00
2022-10-07T15:59:12.623Z,45.75
2022-10-07T16:01:40.026Z,46.78
2022-10-07T16:04:11.934Z,46.49
2022-10-07T16:06:39.466Z,46.16
2022-10-07T16:09:07.049Z,45.88
2022-10-07T16:11:34.858Z,46.29
2022-10-07T16:14:02.325Z,46.97
2022-10-07T16:16:32.360Z,46.97
2022-10-07T16:19:00.703Z,47.24
2022-10-07T16:21:31.405Z,47.28
2022-10-07T16:24:15.394Z,48.13
2022-10-07T16:26:44.393Z,48.25
2022-10-07T16:29:38.486Z,47.79
2022-10-07T16:32:10.804Z,47.81
2022-10-07T16:34:39.399Z,48.26
2022-10-07T16:37:06.779Z,48.19
2022-10-07T16:39:34.134Z,49.77
2022-10-07T16:42:01.605Z,49.21
2022-10-07T16:44:29.621Z,49.29
2022-10-07T16:46:58.032Z,49.70
2022-10-07T16:49:27.546Z,49.71
2022-10-07T16:51:55.487Z,50.08
2022-10-07T16:54:22.844Z,50.19
2022-10-07T16:56:52.531Z,50.38
2022-10-07T16:59:23.620Z,50.65
2022-10-07T17:01:56.918Z,50.79
2022-10-07T17:04:25.497Z,52.07
2022-10-07T17:06:54.120Z,52.48
2022-10-07T17:09:24.483Z,53.23
2022-10-07T17:11:51.940Z,54.26
2022-10-07T17:14:21.203Z,54.01
2022-10-07T17:16:51.070Z,54.58
2022-10-07T17:19:21.222Z,55.19
2022-10-07T17:21:49.861Z,55.39
2022-10-07T17:24:18.354Z,55.60
2022-10-07T17:26:46.361Z,56.05
2022-10-07T17:29:18.098Z,56.09
2022-10-07T17:31:51.030Z,57.11
2022-10-07T17:34:20.149Z,57.98
2022-10-07T17:36:48.402Z,59.18
2022-10-07T17:39:17.358Z,59.19
2022-10-07T17:41:44.947Z,60.07
2022-10-07T17:44:13.107Z,61.19
2022-10-07T17:46:41.513Z,61.14
2022-10-07T17:49:13.481Z,61.94
2022-10-07T17:51:43.132Z,62.73
2022-10-07T17:54:12.628Z,63.23
2022-10-07T17:56:40.585Z,64.23
2022-10-07T17:59:07.948Z,65.01
2022-10-07T18:01:35.813Z,65.96
2022-10-07T18:04:07.735Z,66.10
2022-10-07T18:06:36.246Z,66.72
2022-10-07T18:09:09.188Z,66.65
2022-10-07T18:11:55.342Z,66.96
2022-10-07T18:14:41.166Z,66.61
2022-10-07T18:17:10.493Z,66.74
2022-10-07T18:19:39.770Z,66.42
2022-10-07T18:22:07.941Z,66.36
2022-10-07T18:24:35.327Z,66.59
2022-10-07T18:27:02.848Z,68.22
2022-10-07T18:29:33.950Z,68.72
2022-10-07T18:32:01.971Z,69.09
2022-10-07T18:34:29.329Z,68.72
2022-10-07T18:36:57.432Z,68.76
2022-10-07T18:39:27.686Z,69.08
2022-10-07T18:41:56.072Z,69.88
2022-10-07T18:44:23.409Z,69.67
2022-10-07T18:46:51.180Z,69.57
2022-10-07T18:49:18.514Z,69.84
2022-10-07T18:51:47.219Z,70.15
2022-10-07T18:54:14.722Z,70.36
2022-10-07T18:56:42.053Z,69.71
2022-10-07T18:59:13.065Z,69.94
2022-10-07T19:01:45.382Z,71.31
2022-10-07T19:04:16.562Z,71.25
2022-10-07T19:06:45.261Z,71.64
2022-10-07T19:09:16.911Z,71.61
2022-10-07T19:11:44.912Z,72.38
2022-10-07T19:14:12.523Z,73.07
2022-10-07T19:16:45.593Z,72.64
2022-10-07T19:19:15.555Z,73.17
2022-10-07T19:21:46.301Z,73.30
2022-10-07T19:24:14.846Z,73.19
2022-10-07T19:26:45.773Z,73.25
2022-10-07T19:29:13.910Z,72.85
2022-10-07T19:31:43.936Z,73.05
2022-10-07T19:34:17.628Z,72.86
2022-10-07T19:36:48.364Z,72.92
2022-10-07T19:39:20.944Z,71.87
2022-10-07T19:41:49.428Z,71.63
2022-10-07T19:44:17.065Z,72.10
2022-10-07T19:46:44.595Z,71.88
2022-10-07T19:49:11.985Z,72.24
2022-10-07T19:51:41.924Z,72.16
2022-10-07T19:54:11.928Z,73.03
2022-10-07T19:56:42.327Z,73.41
2022-10-07T19:59:12.068Z,73.14
2022-10-07T20:01:42.883Z,73.64
2022-10-07T20:04:15.929Z,74.24
2022-10-07T20:06:44.340Z,75.70
2022-10-07T20:09:16.698Z,75.48
2022-10-07T20:11:44.563Z,75.68
2022-10-07T20:14:12.310Z,75.75
2022-10-07T20:16:39.722Z,76.23
2022-10-07T20:19:11.021Z,76.52
2022-10-07T20:21:38.604Z,77.42
2022-10-07T20:24:07.489Z,77.79
2022-10-07T20:26:37.045Z,77.77
2022-10-07T20:29:06.133Z,78.50
2022-10-07T20:31:36.162Z,78.88
2022-10-07T20:34:03.599Z,79.88
2022-10-07T20:36:33.443Z,79.55
2022-10-07T20:39:22.445Z,79.67
2022-10-07T20:42:09.530Z,80.47
2022-10-07T20:44:37.150Z,79.88
2022-10-07T20:47:06.338Z,79.45
2022-10-07T20:49:35.152Z,79.48
2022-10-07T20:52:07.016Z,79.92
2022-10-07T20:54:34.336Z,80.41
2022-10-07T20:57:01.660Z,81.37
2022-10-07T20:59:32.695Z,81.43
2022-10-07T21:02:03.890Z,82.15
2022-10-07T21:04:33.780Z,82.29
2022-10-07T21:07:01.746Z,82.50
2022-10-07T21:09:29.114Z,82.32
2022-10-07T21:11:57.789Z,82.02
2022-10-07T21:14:25.150Z,81.36
2022-10-07T21:16:53.360Z,81.34
2022-10-07T21:19:22.602Z,81.30
2022-10-07T21:21:51.062Z,81.36
2022-10-07T21:24:18.822Z,81.25
2022-10-07T21:26:47.012Z,81.88
2022-10-07T21:29:15.065Z,81.79
2022-10-07T21:31:42.870Z,81.54
2022-10-07T21:34:10.289Z,82.69
2022-10-07T21:36:41.049Z,82.98
2022-10-07T21:39:09.217Z,82.60
2022-10-07T21:41:38.709Z,82.10
2022-10-07T21:44:10.666Z,81.89
2022-10-07T21:46:40.108Z,81.91
2022-10-07T21:49:08.055Z,81.88
2022-10-07T21:51:35.654Z,81.96
2022-10-07T21:54:03.874Z,82.37
2022-10-07T21:56:32.795Z,82.44
2022-10-07T21:59:01.580Z,82.54
2022-10-07T22:01:29.873Z,82.02
2022-10-07T22:03:59.624Z,81.92
2022-10-07T22:06:47.307Z,82.27
2022-10-07T22:09:15.763Z,81.99
2022-10-07T22:11:43.158Z,81.90
2022-10-07T22:14:12.756Z,81.76
2022-10-07T22:16:40.819Z,82.93
2022-10-07T22:19:08.301Z,81.82
2022-10-07T22:21:39.915Z,82.31
2022-10-07T22:24:08.616Z,81.60
2022-10-07T22:26:42.145Z,81.46
2022-10-07T22:29:14.740Z,80.86
2022-10-07T22:31:42.200Z,80.85
2022-10-07T22:34:29.623Z,80.94
2022-10-07T22:36:59.551Z,80.72
2022-10-07T22:39:28.707Z,81.09
2022-10-07T22:41:57.346Z,81.25
2022-10-07T22:44:28.007Z,81.76
2022-10-07T22:46:56.647Z,81.53
2022-10-07T22:49:28.780Z,81.82
2022-10-07T22:51:58.870Z,82.09
2022-10-07T22:54:26.989Z,82.61
2022-10-07T22:56:54.650Z,82.97
2022-10-07T22:59:22.049Z,83.47
2022-10-07T23:01:49.409Z,83.13
2022-10-07T23:04:20.381Z,83.77
2022-10-07T23:06:47.805Z,83.95
2022-10-07T23:09:15.188Z,83.74
2022-10-07T23:11:42.541Z,83.85
2022-10-07T23:14:09.943Z,84.43
2022-10-07T23:16:37.224Z,83.55
2022-10-07T23:19:04.570Z,83.53
2022-10-07T23:21:34.840Z,84.07
2022-10-07T23:24:07.331Z,84.52
2022-10-07T23:26:36.230Z,84.60
2022-10-07T23:29:04.083Z,85.55
2022-10-07T23:31:32.433Z,85.53
2022-10-07T23:34:01.860Z,85.41
2022-10-07T23:36:30.026Z,85.25
2022-10-07T23:38:59.896Z,84.95
2022-10-07T23:41:29.833Z,85.53
2022-10-07T23:43:59.245Z,85.44
2022-10-07T23:46:27.815Z,85.07
2022-10-07T23:48:58.716Z,85.09
2022-10-07T23:51:31.426Z,85.46
2022-10-07T23:54:00.815Z,84.71
2022-10-07T23:56:28.832Z,84.69
2022-10-07T23:58:57.515Z,84.54
